sensor_id;sensor_type;location;lat;lon;timestamp;P1;durP1;ratioP1;P2;durP2;ratioP2
10248;SDS011;5169;50.560;9.714;2023-10-13T00:00:26;287.17;;;115.23;;
10248;SDS011;5169;50.560;9.714;2023-10-13T00:02:57;279.17;;;111.60;;
10248;SDS011;5169;50.560;9.714;2023-10-13T00:05:29;274.00;;;115.60;;
10248;SDS011;5169;50.560;9.714;2023-10-13T00:07:56;287.43;;;119.07;;
10248;SDS011;5169;50.560;9.714;2023-10-13T00:10:31;275.40;;;112.00;;
10248;SDS011;5169;50.560;9.714;2023-10-13T00:12:58;281.90;;;118.47;;
10248;SDS011;5169;50.560;9.714;2023-10-13T00:15:51;279.43;;;114.73;;
10248;SDS011;5169;50.560;9.714;2023-10-13T00:18:25;274.03;;;113.17;;
10248;SDS011;5169;50.560;9.714;2023-10-13T00:21:06;287.47;;;116.20;;
10248;SDS011;5169;50.560;9.714;2023-10-13T00:23:40;280.60;;;114.97;;
10248;SDS011;5169;50.560;9.714;2023-10-13T00:26:18;280.13;;;113.70;;
10248;SDS011;5169;50.560;9.714;2023-10-13T00:28:48;272.13;;;111.07;;
10248;SDS011;5169;50.560;9.714;2023-10-13T00:31:24;272.73;;;117.03;;
10248;SDS011;5169;50.560;9.714;2023-10-13T00:33:58;275.30;;;115.47;;
10248;SDS011;5169;50.560;9.714;2023-10-13T00:36:37;275.60;;;112.47;;
10248;SDS011;5169;50.560;9.714;2023-10-13T00:39:34;278.27;;;114.00;;
10248;SDS011;5169;50.560;9.714;2023-10-13T00:42:05;277.03;;;114.00;;
10248;SDS011;5169;50.560;9.714;2023-10-13T00:44:32;281.00;;;110.00;;
10248;SDS011;5169;50.560;9.714;2023-10-13T00:47:07;273.80;;;110.83;;
10248;SDS011;5169;50.560;9.714;2023-10-13T00:49:35;281.90;;;115.00;;
10248;SDS011;5169;50.560;9.714;2023-10-13T00:52:05;276.37;;;112.97;;
10248;SDS011;5169;50.560;9.714;2023-10-13T00:54:32;281.03;;;114.80;;
10248;SDS011;5169;50.560;9.714;2023-10-13T00:57:00;280.63;;;110.67;;
10248;SDS011;5169;50.560;9.714;2023-10-13T00:59:32;280.03;;;111.63;;
10248;SDS011;5169;50.560;9.714;2023-10-13T01:02:01;285.47;;;113.30;;
10248;SDS011;5169;50.560;9.714;2023-10-13T01:04:47;283.70;;;113.47;;
10248;SDS011;5169;50.560;9.714;2023-10-13T01:07:13;295.17;;;108.87;;
10248;SDS011;5169;50.560;9.714;2023-10-13T01:09:43;288.47;;;107.23;;
10248;SDS011;5169;50.560;9.714;2023-10-13T01:12:12;285.37;;;110.73;;
10248;SDS011;5169;50.560;9.714;2023-10-13T01:14:37;285.57;;;109.37;;
10248;SDS011;5169;50.560;9.714;2023-10-13T01:17:03;281.57;;;110.10;;
10248;SDS011;5169;50.560;9.714;2023-10-13T01:19:35;301.60;;;113.77;;
10248;SDS011;5169;50.560;9.714;2023-10-13T01:22:04;277.30;;;110.57;;
10248;SDS011;5169;50.560;9.714;2023-10-13T01:24:32;280.83;;;106.03;;
10248;SDS011;5169;50.560;9.714;2023-10-13T01:27:00;282.17;;;110.90;;
10248;SDS011;5169;50.560;9.714;2023-10-13T01:29:41;287.40;;;108.70;;
10248;SDS011;5169;50.560;9.714;2023-10-13T01:32:12;290.13;;;112.80;;
10248;SDS011;5169;50.560;9.714;2023-10-13T01:34:39;285.97;;;115.30;;
10248;SDS011;5169;50.560;9.714;2023-10-13T01:37:05;294.77;;;113.57;;
10248;SDS011;5169;50.560;9.714;2023-10-13T01:39:31;301.57;;;115.50;;
10248;SDS011;5169;50.560;9.714;2023-10-13T01:42:01;293.47;;;112.03;;
10248;SDS011;5169;50.560;9.714;2023-10-13T01:44:27;290.03;;;111.67;;
10248;SDS011;5169;50.560;9.714;2023-10-13T01:47:01;295.10;;;114.67;;
10248;SDS011;5169;50.560;9.714;2023-10-13T01:49:31;285.23;;;116.10;;
10248;SDS011;5169;50.560;9.714;2023-10-13T01:52:07;288.63;;;110.73;;
10248;SDS011;5169;50.560;9.714;2023-10-13T01:54:37;288.43;;;112.43;;
10248;SDS011;5169;50.560;9.714;2023-10-13T01:57:06;286.70;;;112.40;;
10248;SDS011;5169;50.560;9.714;2023-10-13T01:59:32;287.33;;;112.50;;
10248;SDS011;5169;50.560;9.714;2023-10-13T02:01:58;283.87;;;111.63;;
10248;SDS011;5169;50.560;9.714;2023-10-13T02:04:27;295.93;;;115.03;;
10248;SDS011;5169;50.560;9.714;2023-10-13T02:06:53;286.50;;;112.73;;
10248;SDS011;5169;50.560;9.714;2023-10-13T02:09:21;285.30;;;113.47;;
10248;SDS011;5169;50.560;9.714;2023-10-13T02:11:54;288.27;;;112.80;;
10248;SDS011;5169;50.560;9.714;2023-10-13T02:14:20;287.83;;;114.13;;
10248;SDS011;5169;50.560;9.714;2023-10-13T02:16:50;290.90;;;113.30;;
10248;SDS011;5169;50.560;9.714;2023-10-13T02:19:20;286.43;;;113.97;;
10248;SDS011;5169;50.560;9.714;2023-10-13T02:21:46;282.43;;;113.63;;
10248;SDS011;5169;50.560;9.714;2023-10-13T02:24:23;287.53;;;115.67;;
10248;SDS011;5169;50.560;9.714;2023-10-13T02:26:57;285.63;;;116.60;;
10248;SDS011;5169;50.560;9.714;2023-10-13T02:29:30;284.57;;;117.50;;
10248;SDS011;5169;50.560;9.714;2023-10-13T02:31:55;294.00;;;117.50;;
10248;SDS011;5169;50.560;9.714;2023-10-13T02:34:23;287.27;;;114.97;;
10248;SDS011;5169;50.560;9.714;2023-10-13T02:36:51;288.33;;;115.60;;
10248;SDS011;5169;50.560;9.714;2023-10-13T02:39:18;287.53;;;114.17;;
10248;SDS011;5169;50.560;9.714;2023-10-13T02:41:51;301.00;;;118.67;;
10248;SDS011;5169;50.560;9.714;2023-10-13T02:44:20;288.67;;;113.83;;
10248;SDS011;5169;50.560;9.714;2023-10-13T02:46:55;293.73;;;117.20;;
10248;SDS011;5169;50.560;9.714;2023-10-13T02:49:22;274.20;;;110.03;;
10248;SDS011;5169;50.560;9.714;2023-10-13T02:51:51;286.40;;;112.90;;
10248;SDS011;5169;50.560;9.714;2023-10-13T02:54:17;285.30;;;118.53;;
10248;SDS011;5169;50.560;9.714;2023-10-13T02:56:44;294.13;;;117.03;;
10248;SDS011;5169;50.560;9.714;2023-10-13T02:59:28;293.40;;;114.37;;
10248;SDS011;5169;50.560;9.714;2023-10-13T03:02:21;288.87;;;115.40;;
10248;SDS011;5169;50.560;9.714;2023-10-13T03:04:51;282.50;;;114.10;;
10248;SDS011;5169;50.560;9.714;2023-10-13T03:07:24;270.60;;;115.17;;
10248;SDS011;5169;50.560;9.714;2023-10-13T03:09:53;285.60;;;113.83;;
10248;SDS011;5169;50.560;9.714;2023-10-13T03:12:23;277.20;;;112.83;;
10248;SDS011;5169;50.560;9.714;2023-10-13T03:14:58;280.80;;;117.80;;
10248;SDS011;5169;50.560;9.714;2023-10-13T03:17:38;274.10;;;110.53;;
10248;SDS011;5169;50.560;9.714;2023-10-13T03:20:09;278.27;;;112.50;;
10248;SDS011;5169;50.560;9.714;2023-10-13T03:22:41;274.13;;;113.00;;
10248;SDS011;5169;50.560;9.714;2023-10-13T03:25:14;267.80;;;110.23;;
10248;SDS011;5169;50.560;9.714;2023-10-13T03:28:05;274.20;;;113.43;;
10248;SDS011;5169;50.560;9.714;2023-10-13T03:30:32;283.50;;;117.63;;
10248;SDS011;5169;50.560;9.714;2023-10-13T03:33:05;278.53;;;114.03;;
10248;SDS011;5169;50.560;9.714;2023-10-13T03:35:38;278.87;;;112.30;;
10248;SDS011;5169;50.560;9.714;2023-10-13T03:38:07;278.50;;;114.13;;
10248;SDS011;5169;50.560;9.714;2023-10-13T03:40:45;275.13;;;114.20;;
10248;SDS011;5169;50.560;9.714;2023-10-13T03:43:21;276.80;;;110.70;;
10248;SDS011;5169;50.560;9.714;2023-10-13T03:45:48;297.43;;;121.90;;
10248;SDS011;5169;50.560;9.714;2023-10-13T03:48:26;273.07;;;115.10;;
10248;SDS011;5169;50.560;9.714;2023-10-13T03:50:55;281.00;;;111.47;;
10248;SDS011;5169;50.560;9.714;2023-10-13T03:53:47;294.97;;;108.90;;
10248;SDS011;5169;50.560;9.714;2023-10-13T03:56:23;286.87;;;118.70;;
10248;SDS011;5169;50.560;9.714;2023-10-13T03:58:53;289.67;;;116.70;;
10248;SDS011;5169;50.560;9.714;2023-10-13T04:01:23;286.30;;;112.93;;
10248;SDS011;5169;50.560;9.714;2023-10-13T04:03:57;289.53;;;117.87;;
10248;SDS011;5169;50.560;9.714;2023-10-13T04:06:44;284.10;;;117.00;;
10248;SDS011;5169;50.560;9.714;2023-10-13T04:09:15;286.17;;;118.70;;
10248;SDS011;5169;50.560;9.714;2023-10-13T04:14:28;283.33;;;116.23;;
10248;SDS011;5169;50.560;9.714;2023-10-13T04:17:06;291.57;;;123.67;;
10248;SDS011;5169;50.560;9.714;2023-10-13T04:19:39;276.60;;;122.27;;
10248;SDS011;5169;50.560;9.714;2023-10-13T04:22:25;290.23;;;122.87;;
10248;SDS011;5169;50.560;9.714;2023-10-13T04:25:15;277.40;;;119.43;;
10248;SDS011;5169;50.560;9.714;2023-10-13T04:28:03;288.77;;;123.87;;
10248;SDS011;5169;50.560;9.714;2023-10-13T04:30:43;285.27;;;122.20;;
10248;SDS011;5169;50.560;9.714;2023-10-13T04:33:22;285.43;;;120.67;;
10248;SDS011;5169;50.560;9.714;2023-10-13T04:36:15;298.00;;;123.63;;
10248;SDS011;5169;50.560;9.714;2023-10-13T04:38:45;297.90;;;120.90;;
10248;SDS011;5169;50.560;9.714;2023-10-13T04:44:10;294.60;;;119.97;;
10248;SDS011;5169;50.560;9.714;2023-10-13T04:46:54;299.87;;;123.90;;
10248;SDS011;5169;50.560;9.714;2023-10-13T04:49:26;293.97;;;120.80;;
10248;SDS011;5169;50.560;9.714;2023-10-13T04:52:05;300.73;;;123.73;;
10248;SDS011;5169;50.560;9.714;2023-10-13T04:54:34;303.47;;;128.13;;
10248;SDS011;5169;50.560;9.714;2023-10-13T04:57:30;300.50;;;124.17;;
10248;SDS011;5169;50.560;9.714;2023-10-13T04:59:56;295.53;;;124.47;;
10248;SDS011;5169;50.560;9.714;2023-10-13T05:05:15;288.13;;;121.87;;
10248;SDS011;5169;50.560;9.714;2023-10-13T05:07:43;296.97;;;122.07;;
10248;SDS011;5169;50.560;9.714;2023-10-13T05:10:32;298.40;;;123.20;;
10248;SDS011;5169;50.560;9.714;2023-10-13T05:13:31;298.03;;;124.30;;
10248;SDS011;5169;50.560;9.714;2023-10-13T05:16:15;294.13;;;116.07;;
10248;SDS011;5169;50.560;9.714;2023-10-13T05:18:59;288.87;;;117.53;;
10248;SDS011;5169;50.560;9.714;2023-10-13T05:21:43;284.63;;;117.67;;
10248;SDS011;5169;50.560;9.714;2023-10-13T05:24:28;285.13;;;116.37;;
10248;SDS011;5169;50.560;9.714;2023-10-13T05:27:12;284.97;;;118.30;;
10248;SDS011;5169;50.560;9.714;2023-10-13T05:29:57;296.77;;;122.97;;
10248;SDS011;5169;50.560;9.714;2023-10-13T05:32:41;288.23;;;118.90;;
10248;SDS011;5169;50.560;9.714;2023-10-13T05:35:27;288.00;;;118.97;;
10248;SDS011;5169;50.560;9.714;2023-10-13T05:38:14;281.50;;;119.23;;
10248;SDS011;5169;50.560;9.714;2023-10-13T05:40:59;283.57;;;121.27;;
10248;SDS011;5169;50.560;9.714;2023-10-13T05:43:43;296.47;;;120.97;;
10248;SDS011;5169;50.560;9.714;2023-10-13T05:46:30;290.33;;;122.37;;
10248;SDS011;5169;50.560;9.714;2023-10-13T05:49:05;286.37;;;121.00;;
10248;SDS011;5169;50.560;9.714;2023-10-13T05:51:41;277.97;;;120.00;;
10248;SDS011;5169;50.560;9.714;2023-10-13T05:54:08;365.77;;;134.30;;
10248;SDS011;5169;50.560;9.714;2023-10-13T05:56:43;363.37;;;129.07;;
10248;SDS011;5169;50.560;9.714;2023-10-13T05:59:39;364.90;;;122.23;;
10248;SDS011;5169;50.560;9.714;2023-10-13T06:02:24;364.13;;;128.03;;
10248;SDS011;5169;50.560;9.714;2023-10-13T06:05:09;362.83;;;127.13;;
10248;SDS011;5169;50.560;9.714;2023-10-13T06:07:54;361.50;;;128.73;;
10248;SDS011;5169;50.560;9.714;2023-10-13T06:10:40;360.50;;;127.70;;
10248;SDS011;5169;50.560;9.714;2023-10-13T06:13:25;365.03;;;126.57;;
10248;SDS011;5169;50.560;9.714;2023-10-13T06:16:09;362.23;;;132.23;;
10248;SDS011;5169;50.560;9.714;2023-10-13T06:18:55;361.10;;;128.30;;
10248;SDS011;5169;50.560;9.714;2023-10-13T06:21:39;364.90;;;128.37;;
10248;SDS011;5169;50.560;9.714;2023-10-13T06:24:23;359.33;;;126.77;;
10248;SDS011;5169;50.560;9.714;2023-10-13T06:27:08;360.50;;;127.57;;
10248;SDS011;5169;50.560;9.714;2023-10-13T06:29:54;364.50;;;130.23;;
10248;SDS011;5169;50.560;9.714;2023-10-13T06:32:20;362.87;;;130.27;;
10248;SDS011;5169;50.560;9.714;2023-10-13T06:34:51;362.23;;;127.40;;
10248;SDS011;5169;50.560;9.714;2023-10-13T06:37:22;360.40;;;132.13;;
10248;SDS011;5169;50.560;9.714;2023-10-13T06:39:55;368.27;;;126.63;;
10248;SDS011;5169;50.560;9.714;2023-10-13T06:42:31;364.40;;;128.90;;
10248;SDS011;5169;50.560;9.714;2023-10-13T06:44:59;366.50;;;132.23;;
10248;SDS011;5169;50.560;9.714;2023-10-13T06:47:28;361.93;;;128.80;;
10248;SDS011;5169;50.560;9.714;2023-10-13T06:49:54;365.30;;;132.83;;
10248;SDS011;5169;50.560;9.714;2023-10-13T06:52:21;363.00;;;129.70;;
10248;SDS011;5169;50.560;9.714;2023-10-13T06:54:50;362.30;;;134.67;;
10248;SDS011;5169;50.560;9.714;2023-10-13T06:57:18;360.57;;;129.63;;
10248;SDS011;5169;50.560;9.714;2023-10-13T06:59:47;367.80;;;140.63;;
10248;SDS011;5169;50.560;9.714;2023-10-13T07:02:12;368.50;;;140.87;;
10248;SDS011;5169;50.560;9.714;2023-10-13T07:04:47;371.07;;;137.30;;
10248;SDS011;5169;50.560;9.714;2023-10-13T07:07:13;367.33;;;140.87;;
10248;SDS011;5169;50.560;9.714;2023-10-13T07:09:40;367.57;;;138.87;;
10248;SDS011;5169;50.560;9.714;2023-10-13T07:12:14;365.67;;;140.13;;
10248;SDS011;5169;50.560;9.714;2023-10-13T07:14:48;365.93;;;137.23;;
10248;SDS011;5169;50.560;9.714;2023-10-13T07:17:16;363.07;;;132.73;;
10248;SDS011;5169;50.560;9.714;2023-10-13T07:19:58;369.77;;;137.43;;
10248;SDS011;5169;50.560;9.714;2023-10-13T07:22:46;365.07;;;135.87;;
10248;SDS011;5169;50.560;9.714;2023-10-13T07:25:31;367.40;;;135.93;;
10248;SDS011;5169;50.560;9.714;2023-10-13T07:28:02;365.23;;;132.67;;
10248;SDS011;5169;50.560;9.714;2023-10-13T07:30:29;366.00;;;139.63;;
10248;SDS011;5169;50.560;9.714;2023-10-13T07:33:04;367.07;;;144.37;;
10248;SDS011;5169;50.560;9.714;2023-10-13T07:35:31;375.10;;;151.63;;
10248;SDS011;5169;50.560;9.714;2023-10-13T07:38:01;372.67;;;148.17;;
10248;SDS011;5169;50.560;9.714;2023-10-13T07:40:27;374.97;;;154.03;;
10248;SDS011;5169;50.560;9.714;2023-10-13T07:42:53;376.93;;;160.00;;
10248;SDS011;5169;50.560;9.714;2023-10-13T07:45:48;368.23;;;144.17;;
10248;SDS011;5169;50.560;9.714;2023-10-13T07:48:19;371.03;;;150.57;;
10248;SDS011;5169;50.560;9.714;2023-10-13T07:51:08;374.47;;;147.67;;
10248;SDS011;5169;50.560;9.714;2023-10-13T07:53:41;366.30;;;136.17;;
10248;SDS011;5169;50.560;9.714;2023-10-13T07:56:08;370.00;;;147.93;;
10248;SDS011;5169;50.560;9.714;2023-10-13T07:58:39;363.37;;;133.47;;
10248;SDS011;5169;50.560;9.714;2023-10-13T08:01:31;372.30;;;147.00;;
10248;SDS011;5169;50.560;9.714;2023-10-13T08:03:57;365.93;;;141.57;;
10248;SDS011;5169;50.560;9.714;2023-10-13T08:06:30;363.97;;;143.23;;
10248;SDS011;5169;50.560;9.714;2023-10-13T08:08:55;366.60;;;144.13;;
10248;SDS011;5169;50.560;9.714;2023-10-13T08:11:32;366.37;;;146.63;;
10248;SDS011;5169;50.560;9.714;2023-10-13T08:14:05;364.33;;;144.97;;
10248;SDS011;5169;50.560;9.714;2023-10-13T08:16:41;370.67;;;146.60;;
10248;SDS011;5169;50.560;9.714;2023-10-13T08:19:13;375.23;;;156.37;;
10248;SDS011;5169;50.560;9.714;2023-10-13T08:21:46;380.03;;;159.37;;
10248;SDS011;5169;50.560;9.714;2023-10-13T08:24:23;376.70;;;157.43;;
10248;SDS011;5169;50.560;9.714;2023-10-13T08:26:53;372.57;;;159.23;;
10248;SDS011;5169;50.560;9.714;2023-10-13T08:29:37;375.43;;;165.27;;
10248;SDS011;5169;50.560;9.714;2023-10-13T08:32:24;374.27;;;162.03;;
10248;SDS011;5169;50.560;9.714;2023-10-13T08:34:54;375.07;;;154.23;;
10248;SDS011;5169;50.560;9.714;2023-10-13T08:37:20;375.23;;;164.73;;
10248;SDS011;5169;50.560;9.714;2023-10-13T08:39:47;371.67;;;157.93;;
10248;SDS011;5169;50.560;9.714;2023-10-13T08:42:28;372.57;;;169.43;;
10248;SDS011;5169;50.560;9.714;2023-10-13T08:45:12;371.70;;;164.37;;
10248;SDS011;5169;50.560;9.714;2023-10-13T08:47:51;366.43;;;166.70;;
10248;SDS011;5169;50.560;9.714;2023-10-13T08:50:36;371.23;;;161.60;;
10248;SDS011;5169;50.560;9.714;2023-10-13T08:58:59;367.23;;;167.40;;
10248;SDS011;5169;50.560;9.714;2023-10-13T09:01:31;369.70;;;173.90;;
10248;SDS011;5169;50.560;9.714;2023-10-13T09:03:58;370.87;;;182.37;;
10248;SDS011;5169;50.560;9.714;2023-10-13T09:09:31;382.90;;;188.50;;
10248;SDS011;5169;50.560;9.714;2023-10-13T09:12:24;383.00;;;191.23;;
10248;SDS011;5169;50.560;9.714;2023-10-13T09:14:57;386.63;;;205.80;;
10248;SDS011;5169;50.560;9.714;2023-10-13T09:17:23;380.37;;;199.23;;
10248;SDS011;5169;50.560;9.714;2023-10-13T09:19:59;384.97;;;204.60;;
10248;SDS011;5169;50.560;9.714;2023-10-13T09:22:45;392.03;;;200.93;;
10248;SDS011;5169;50.560;9.714;2023-10-13T09:28:01;389.93;;;216.57;;
10248;SDS011;5169;50.560;9.714;2023-10-13T09:33:35;400.07;;;225.73;;
10248;SDS011;5169;50.560;9.714;2023-10-13T09:36:01;397.87;;;233.67;;
10248;SDS011;5169;50.560;9.714;2023-10-13T09:38:35;400.70;;;232.63;;
10248;SDS011;5169;50.560;9.714;2023-10-13T09:41:03;392.40;;;231.87;;
10248;SDS011;5169;50.560;9.714;2023-10-13T09:43:43;388.77;;;220.20;;
10248;SDS011;5169;50.560;9.714;2023-10-13T09:46:10;392.40;;;232.17;;
10248;SDS011;5169;50.560;9.714;2023-10-13T09:48:46;394.30;;;235.60;;
10248;SDS011;5169;50.560;9.714;2023-10-13T09:51:29;395.90;;;222.97;;
10248;SDS011;5169;50.560;9.714;2023-10-13T09:53:58;394.30;;;223.60;;
10248;SDS011;5169;50.560;9.714;2023-10-13T09:56:42;399.70;;;227.70;;
10248;SDS011;5169;50.560;9.714;2023-10-13T09:59:30;392.80;;;222.00;;
10248;SDS011;5169;50.560;9.714;2023-10-13T10:02:03;393.07;;;234.23;;
10248;SDS011;5169;50.560;9.714;2023-10-13T10:04:34;394.83;;;232.47;;
10248;SDS011;5169;50.560;9.714;2023-10-13T10:07:09;390.70;;;234.60;;
10248;SDS011;5169;50.560;9.714;2023-10-13T10:09:35;379.30;;;226.00;;
10248;SDS011;5169;50.560;9.714;2023-10-13T10:12:12;393.83;;;248.33;;
10248;SDS011;5169;50.560;9.714;2023-10-13T10:17:38;413.67;;;259.53;;
10248;SDS011;5169;50.560;9.714;2023-10-13T10:20:08;402.93;;;278.07;;
10248;SDS011;5169;50.560;9.714;2023-10-13T10:22:40;400.17;;;287.37;;
10248;SDS011;5169;50.560;9.714;2023-10-13T10:25:14;408.50;;;294.27;;
10248;SDS011;5169;50.560;9.714;2023-10-13T10:27:55;406.20;;;320.50;;
10248;SDS011;5169;50.560;9.714;2023-10-13T10:30:29;423.40;;;323.40;;
10248;SDS011;5169;50.560;9.714;2023-10-13T10:32:58;420.03;;;312.53;;
10248;SDS011;5169;50.560;9.714;2023-10-13T10:35:35;413.83;;;342.60;;
10248;SDS011;5169;50.560;9.714;2023-10-13T10:38:14;416.73;;;373.47;;
10248;SDS011;5169;50.560;9.714;2023-10-13T10:40:53;439.60;;;396.27;;
10248;SDS011;5169;50.560;9.714;2023-10-13T10:43:36;414.83;;;372.40;;
10248;SDS011;5169;50.560;9.714;2023-10-13T10:48:35;425.27;;;383.80;;
10248;SDS011;5169;50.560;9.714;2023-10-13T10:51:03;396.23;;;354.50;;
10248;SDS011;5169;50.560;9.714;2023-10-13T10:53:33;385.83;;;344.13;;
10248;SDS011;5169;50.560;9.714;2023-10-13T10:56:09;415.30;;;327.80;;
10248;SDS011;5169;50.560;9.714;2023-10-13T10:58:54;411.53;;;299.93;;
10248;SDS011;5169;50.560;9.714;2023-10-13T11:01:22;405.40;;;302.57;;
10248;SDS011;5169;50.560;9.714;2023-10-13T11:04:01;409.80;;;298.23;;
10248;SDS011;5169;50.560;9.714;2023-10-13T11:06:39;406.63;;;303.63;;
10248;SDS011;5169;50.560;9.714;2023-10-13T11:09:11;406.40;;;300.10;;
10248;SDS011;5169;50.560;9.714;2023-10-13T11:11:46;409.67;;;292.53;;
10248;SDS011;5169;50.560;9.714;2023-10-13T11:14:27;409.40;;;308.33;;
10248;SDS011;5169;50.560;9.714;2023-10-13T11:16:56;416.10;;;319.23;;
10248;SDS011;5169;50.560;9.714;2023-10-13T11:19:33;413.93;;;324.33;;
10248;SDS011;5169;50.560;9.714;2023-10-13T11:25:03;405.07;;;290.10;;
10248;SDS011;5169;50.560;9.714;2023-10-13T11:27:39;401.30;;;270.77;;
10248;SDS011;5169;50.560;9.714;2023-10-13T11:30:25;397.87;;;265.73;;
10248;SDS011;5169;50.560;9.714;2023-10-13T11:35:34;403.90;;;298.23;;
10248;SDS011;5169;50.560;9.714;2023-10-13T11:41:00;408.07;;;275.93;;
10248;SDS011;5169;50.560;9.714;2023-10-13T11:43:40;413.23;;;279.50;;
10248;SDS011;5169;50.560;9.714;2023-10-13T11:46:08;407.17;;;272.57;;
10248;SDS011;5169;50.560;9.714;2023-10-13T11:48:34;397.93;;;273.40;;
10248;SDS011;5169;50.560;9.714;2023-10-13T11:51:06;407.07;;;277.33;;
10248;SDS011;5169;50.560;9.714;2023-10-13T11:53:51;406.40;;;268.13;;
10248;SDS011;5169;50.560;9.714;2023-10-13T11:56:17;406.67;;;271.60;;
10248;SDS011;5169;50.560;9.714;2023-10-13T11:58:47;397.07;;;262.90;;
10248;SDS011;5169;50.560;9.714;2023-10-13T12:01:13;394.07;;;278.60;;
10248;SDS011;5169;50.560;9.714;2023-10-13T12:06:24;401.13;;;267.70;;
10248;SDS011;5169;50.560;9.714;2023-10-13T12:09:02;403.07;;;267.63;;
10248;SDS011;5169;50.560;9.714;2023-10-13T12:11:50;387.57;;;274.50;;
10248;SDS011;5169;50.560;9.714;2023-10-13T12:14:16;394.10;;;279.50;;
10248;SDS011;5169;50.560;9.714;2023-10-13T12:16:46;395.80;;;271.40;;
10248;SDS011;5169;50.560;9.714;2023-10-13T12:19:22;399.37;;;278.93;;
10248;SDS011;5169;50.560;9.714;2023-10-13T12:21:57;395.20;;;279.60;;
10248;SDS011;5169;50.560;9.714;2023-10-13T12:24:29;401.13;;;269.87;;
10248;SDS011;5169;50.560;9.714;2023-10-13T12:27:01;394.67;;;274.13;;
10248;SDS011;5169;50.560;9.714;2023-10-13T12:29:27;394.27;;;268.13;;
10248;SDS011;5169;50.560;9.714;2023-10-13T12:31:57;394.90;;;278.23;;
10248;SDS011;5169;50.560;9.714;2023-10-13T12:34:38;397.03;;;271.90;;
10248;SDS011;5169;50.560;9.714;2023-10-13T12:37:26;399.03;;;271.57;;
10248;SDS011;5169;50.560;9.714;2023-10-13T12:40:10;395.43;;;282.10;;
10248;SDS011;5169;50.560;9.714;2023-10-13T12:42:58;397.30;;;279.13;;
10248;SDS011;5169;50.560;9.714;2023-10-13T12:45:43;397.77;;;293.40;;
10248;SDS011;5169;50.560;9.714;2023-10-13T12:48:29;396.60;;;288.17;;
10248;SDS011;5169;50.560;9.714;2023-10-13T12:51:14;390.87;;;293.17;;
10248;SDS011;5169;50.560;9.714;2023-10-13T12:53:52;389.33;;;299.53;;
10248;SDS011;5169;50.560;9.714;2023-10-13T12:56:19;391.63;;;304.57;;
10248;SDS011;5169;50.560;9.714;2023-10-13T12:58:51;394.17;;;311.53;;
10248;SDS011;5169;50.560;9.714;2023-10-13T13:03:50;400.40;;;308.73;;
10248;SDS011;5169;50.560;9.714;2023-10-13T13:06:22;395.60;;;314.87;;
10248;SDS011;5169;50.560;9.714;2023-10-13T13:08:54;412.47;;;333.60;;
10248;SDS011;5169;50.560;9.714;2023-10-13T13:11:23;407.27;;;337.00;;
10248;SDS011;5169;50.560;9.714;2023-10-13T13:13:49;409.37;;;337.10;;
10248;SDS011;5169;50.560;9.714;2023-10-13T13:16:18;396.37;;;337.70;;
10248;SDS011;5169;50.560;9.714;2023-10-13T13:18:48;406.13;;;340.87;;
10248;SDS011;5169;50.560;9.714;2023-10-13T13:21:15;409.03;;;335.60;;
10248;SDS011;5169;50.560;9.714;2023-10-13T13:23:50;410.40;;;324.03;;
10248;SDS011;5169;50.560;9.714;2023-10-13T13:26:16;410.63;;;329.27;;
10248;SDS011;5169;50.560;9.714;2023-10-13T13:28:45;398.37;;;317.97;;
10248;SDS011;5169;50.560;9.714;2023-10-13T13:31:19;396.10;;;317.43;;
10248;SDS011;5169;50.560;9.714;2023-10-13T13:33:54;392.90;;;311.07;;
10248;SDS011;5169;50.560;9.714;2023-10-13T13:36:20;393.07;;;317.23;;
10248;SDS011;5169;50.560;9.714;2023-10-13T13:38:47;398.60;;;304.97;;
10248;SDS011;5169;50.560;9.714;2023-10-13T13:41:22;404.63;;;303.23;;
10248;SDS011;5169;50.560;9.714;2023-10-13T13:43:49;407.40;;;299.53;;
10248;SDS011;5169;50.560;9.714;2023-10-13T13:46:15;416.17;;;293.83;;
10248;SDS011;5169;50.560;9.714;2023-10-13T13:48:42;418.53;;;290.37;;
10248;SDS011;5169;50.560;9.714;2023-10-13T13:51:10;415.40;;;301.07;;
10248;SDS011;5169;50.560;9.714;2023-10-13T13:53:45;408.20;;;293.53;;
10248;SDS011;5169;50.560;9.714;2023-10-13T13:56:14;412.73;;;294.37;;
10248;SDS011;5169;50.560;9.714;2023-10-13T13:58:48;414.20;;;290.73;;
10248;SDS011;5169;50.560;9.714;2023-10-13T14:01:18;411.40;;;279.00;;
10248;SDS011;5169;50.560;9.714;2023-10-13T14:03:47;410.87;;;280.47;;
10248;SDS011;5169;50.560;9.714;2023-10-13T14:06:18;410.90;;;282.63;;
10248;SDS011;5169;50.560;9.714;2023-10-13T14:08:57;412.20;;;295.00;;
10248;SDS011;5169;50.560;9.714;2023-10-13T14:11:58;402.67;;;286.60;;
10248;SDS011;5169;50.560;9.714;2023-10-13T14:14:42;409.80;;;288.07;;
10248;SDS011;5169;50.560;9.714;2023-10-13T14:17:23;409.47;;;283.30;;
10248;SDS011;5169;50.560;9.714;2023-10-13T14:19:58;406.40;;;286.13;;
10248;SDS011;5169;50.560;9.714;2023-10-13T14:22:24;408.93;;;284.30;;
10248;SDS011;5169;50.560;9.714;2023-10-13T14:24:50;408.63;;;293.77;;
10248;SDS011;5169;50.560;9.714;2023-10-13T14:27:20;410.27;;;288.97;;
10248;SDS011;5169;50.560;9.714;2023-10-13T14:29:48;408.07;;;294.37;;
10248;SDS011;5169;50.560;9.714;2023-10-13T14:32:18;411.77;;;297.33;;
10248;SDS011;5169;50.560;9.714;2023-10-13T14:34:45;416.57;;;298.90;;
10248;SDS011;5169;50.560;9.714;2023-10-13T14:37:19;405.33;;;274.03;;
10248;SDS011;5169;50.560;9.714;2023-10-13T14:39:56;410.63;;;286.87;;
10248;SDS011;5169;50.560;9.714;2023-10-13T14:42:26;412.30;;;295.63;;
10248;SDS011;5169;50.560;9.714;2023-10-13T14:44:52;406.90;;;271.93;;
10248;SDS011;5169;50.560;9.714;2023-10-13T14:47:24;411.70;;;286.40;;
10248;SDS011;5169;50.560;9.714;2023-10-13T14:49:51;405.53;;;287.17;;
10248;SDS011;5169;50.560;9.714;2023-10-13T14:52:21;404.07;;;294.87;;
10248;SDS011;5169;50.560;9.714;2023-10-13T14:54:47;413.93;;;303.90;;
10248;SDS011;5169;50.560;9.714;2023-10-13T14:57:15;408.47;;;301.63;;
10248;SDS011;5169;50.560;9.714;2023-10-13T14:59:41;410.73;;;304.57;;
10248;SDS011;5169;50.560;9.714;2023-10-13T15:02:09;400.80;;;291.80;;
10248;SDS011;5169;50.560;9.714;2023-10-13T15:04:37;407.63;;;298.80;;
10248;SDS011;5169;50.560;9.714;2023-10-13T15:07:04;397.83;;;307.70;;
10248;SDS011;5169;50.560;9.714;2023-10-13T15:09:31;406.93;;;317.57;;
10248;SDS011;5169;50.560;9.714;2023-10-13T15:11:59;405.40;;;319.93;;
10248;SDS011;5169;50.560;9.714;2023-10-13T15:14:30;402.80;;;302.87;;
10248;SDS011;5169;50.560;9.714;2023-10-13T15:16:58;415.07;;;304.83;;
10248;SDS011;5169;50.560;9.714;2023-10-13T15:19:25;417.23;;;307.07;;
10248;SDS011;5169;50.560;9.714;2023-10-13T15:21:51;398.80;;;309.23;;
10248;SDS011;5169;50.560;9.714;2023-10-13T15:24:18;399.63;;;297.27;;
10248;SDS011;5169;50.560;9.714;2023-10-13T15:26:50;407.33;;;290.90;;
10248;SDS011;5169;50.560;9.714;2023-10-13T15:29:26;409.67;;;289.83;;